createdAt,value
2019-05-07T00:01:24.051Z,6.24
2019-05-07T00:06:29.601Z,6.00
2019-05-07T00:11:35.173Z,6.19
2019-05-07T00:16:42.449Z,5.84
2019-05-07T00:21:47.888Z,5.87
2019-05-07T00:26:54.027Z,5.75
2019-05-07T00:32:02.265Z,5.38
2019-05-07T00:37:22.042Z,5.25
2019-05-07T00:42:32.907Z,5.47
2019-05-07T00:47:42.616Z,5.51
2019-05-07T00:52:47.848Z,5.47
2019-05-07T00:57:53.322Z,5.64
2019-05-07T01:02:59.159Z,5.00
2019-05-07T01:08:05.839Z,5.39
2019-05-07T01:13:12.567Z,5.35
2019-05-07T01:18:18.712Z,5.40
2019-05-07T01:23:25.322Z,5.05
2019-05-07T01:28:32.956Z,5.37
2019-05-07T01:33:45.318Z,5.19
2019-05-07T01:38:52.236Z,5.43
2019-05-07T01:43:57.915Z,5.43
2019-05-07T01:49:04.702Z,5.24
2019-05-07T01:54:10.267Z,5.10
2019-05-07T01:59:16.119Z,5.26
2019-05-07T02:04:47.117Z,4.88
2019-05-07T02:09:58.326Z,5.06
2019-05-07T02:15:07.042Z,5.10
2019-05-07T02:20:13.185Z,4.86
2019-05-07T02:25:22.057Z,4.72
2019-05-07T02:30:27.150Z,4.81
2019-05-07T02:35:33.519Z,5.04
2019-05-07T02:40:44.746Z,5.15
2019-05-07T02:46:17.541Z,4.84
2019-05-07T02:51:14.306Z,4.88
2019-05-07T02:56:19.863Z,4.81
2019-05-07T03:01:25.535Z,4.85
2019-05-07T03:06:33.936Z,4.86
2019-05-07T03:11:39.791Z,4.74
2019-05-07T03:16:53.726Z,4.63
2019-05-07T03:21:57.882Z,4.57
2019-05-07T03:27:03.652Z,4.81
2019-05-07T03:32:38.838Z,4.92
2019-05-07T03:37:44.871Z,4.98
2019-05-07T03:42:53.202Z,4.88
2019-05-07T03:48:19.525Z,4.80
2019-05-07T03:53:25.303Z,4.96
2019-05-07T03:58:43.280Z,5.11
2019-05-07T04:03:55.084Z,5.16
2019-05-07T04:08:57.544Z,5.19
2019-05-07T04:14:06.467Z,5.15
2019-05-07T04:19:13.289Z,5.45
2019-05-07T04:24:29.886Z,5.75
2019-05-07T04:29:35.460Z,5.21
2019-05-07T04:34:54.075Z,5.45
2019-05-07T04:40:02.905Z,5.69
2019-05-07T04:45:09.118Z,5.81
2019-05-07T04:50:34.801Z,5.94
2019-05-07T04:55:25.161Z,5.79
2019-05-07T05:00:33.358Z,6.04
2019-05-07T05:05:38.328Z,6.32
2019-05-07T05:10:43.769Z,6.24
2019-05-07T05:15:49.312Z,6.32
2019-05-07T05:21:12.505Z,6.40
2019-05-07T05:26:21.879Z,6.34
2019-05-07T05:31:29.184Z,6.60
2019-05-07T05:36:34.674Z,6.58
2019-05-07T05:41:45.223Z,6.93
2019-05-07T05:46:52.537Z,6.96
2019-05-07T05:52:17.483Z,7.00
2019-05-07T05:57:51.942Z,7.11
2019-05-07T06:03:27.501Z,7.26
2019-05-07T06:08:43.404Z,7.24
2019-05-07T06:14:09.521Z,7.42
2019-05-07T06:19:23.627Z,7.52
2019-05-07T06:24:52.163Z,7.67
2019-05-07T06:29:57.754Z,7.99
2019-05-07T06:35:04.088Z,8.20
2019-05-07T06:40:30.162Z,8.43
2019-05-07T06:45:46.346Z,8.90
2019-05-07T06:50:58.445Z,8.92
2019-05-07T06:56:04.928Z,9.15
2019-05-07T07:01:35.376Z,9.11
2019-05-07T07:07:03.129Z,9.47
2019-05-07T07:12:13.055Z,9.96
2019-05-07T07:17:23.614Z,9.92
2019-05-07T07:22:31.327Z,10.17
2019-05-07T07:27:38.155Z,9.93
2019-05-07T07:32:46.428Z,9.28
2019-05-07T07:37:53.052Z,10.10
2019-05-07T07:43:03.083Z,9.85
2019-05-07T07:48:08.630Z,10.61
2019-05-07T07:53:15.729Z,10.45
2019-05-07T07:58:43.050Z,10.63
2019-05-07T08:03:48.512Z,9.91
2019-05-07T08:08:55.188Z,10.05
2019-05-07T08:14:02.304Z,10.00
2019-05-07T08:19:21.763Z,9.50
2019-05-07T08:24:22.579Z,9.09
2019-05-07T08:29:32.293Z,9.03
2019-05-07T08:34:44.908Z,9.29
2019-05-07T08:39:52.037Z,9.09
2019-05-07T08:45:11.995Z,9.32
2019-05-07T08:50:22.302Z,9.35
2019-05-07T08:55:27.863Z,9.22
2019-05-07T09:00:36.813Z,9.20
2019-05-07T09:05:42.683Z,9.98
2019-05-07T09:10:48.688Z,11.29
2019-05-07T09:15:55.863Z,12.31
2019-05-07T09:21:02.203Z,12.62
2019-05-07T09:26:10.467Z,11.99
2019-05-07T09:31:22.650Z,11.10
2019-05-07T09:36:34.461Z,9.24
2019-05-07T09:41:41.766Z,9.91
2019-05-07T09:46:47.526Z,10.57
2019-05-07T09:51:53.298Z,9.34
2019-05-07T09:56:58.893Z,8.93
2019-05-07T10:02:05.091Z,9.79
2019-05-07T10:07:12.633Z,10.36
2019-05-07T10:12:28.231Z,10.29
2019-05-07T10:17:40.207Z,10.23
2019-05-07T10:22:45.824Z,9.91
2019-05-07T10:27:53.210Z,10.46
2019-05-07T10:33:01.657Z,11.50
2019-05-07T10:38:07.200Z,9.48
2019-05-07T10:43:12.875Z,10.73
2019-05-07T10:48:25.188Z,8.79
2019-05-07T10:53:32.043Z,10.05
2019-05-07T10:58:38.278Z,10.72
2019-05-07T11:03:43.826Z,11.24
2019-05-07T11:08:51.405Z,11.23
2019-05-07T11:13:57.466Z,11.07
2019-05-07T11:19:04.924Z,11.10
2019-05-07T11:24:12.126Z,11.16
2019-05-07T11:29:17.950Z,10.42
2019-05-07T11:34:23.555Z,10.11
2019-05-07T11:39:29.127Z,9.23
2019-05-07T11:44:34.656Z,9.47
2019-05-07T11:49:58.269Z,9.78
2019-05-07T11:55:05.823Z,10.24
2019-05-07T12:00:23.620Z,10.59
2019-05-07T12:05:29.752Z,11.03
2019-05-07T12:10:35.291Z,12.43
2019-05-07T12:15:52.144Z,11.45
2019-05-07T12:21:02.466Z,10.74
2019-05-07T12:26:07.527Z,10.38
2019-05-07T12:31:31.177Z,10.88
2019-05-07T12:36:36.730Z,10.86
2019-05-07T12:41:42.284Z,11.60
2019-05-07T12:46:47.829Z,11.58
2019-05-07T12:52:18.823Z,10.24
2019-05-07T12:57:26.551Z,12.88
2019-05-07T13:02:43.949Z,12.91
2019-05-07T13:07:58.317Z,11.39
2019-05-07T13:13:04.094Z,10.89
2019-05-07T13:18:12.680Z,11.68
2019-05-07T13:23:22.493Z,11.20
2019-05-07T13:28:30.175Z,12.50
2019-05-07T13:33:37.507Z,13.41
2019-05-07T13:38:56.587Z,14.55
2019-05-07T13:44:35.147Z,14.64
2019-05-07T13:49:42.777Z,14.35
2019-05-07T13:54:48.492Z,14.31
2019-05-07T13:59:58.079Z,11.98
2019-05-07T14:05:03.829Z,12.14
2019-05-07T14:10:12.417Z,13.45
2019-05-07T14:15:17.322Z,13.99
2019-05-07T14:20:23.681Z,13.14
2019-05-07T14:25:29.190Z,12.62
2019-05-07T14:30:34.765Z,12.60
2019-05-07T14:35:49.125Z,13.27
2019-05-07T14:40:54.715Z,12.55
2019-05-07T14:46:02.719Z,12.15
2019-05-07T14:51:08.969Z,12.57
2019-05-07T14:56:16.646Z,12.83
2019-05-07T15:01:22.661Z,14.01
2019-05-07T15:06:46.744Z,14.87
2019-05-07T15:11:54.563Z,15.08
2019-05-07T15:17:09.479Z,12.40
2019-05-07T15:22:45.801Z,13.51
2019-05-07T15:27:38.764Z,12.98
2019-05-07T15:32:52.129Z,13.26
2019-05-07T15:37:59.682Z,13.05
2019-05-07T15:43:12.982Z,12.21
2019-05-07T15:48:18.935Z,13.19
2019-05-07T15:53:53.882Z,13.50
2019-05-07T15:58:59.444Z,13.90
2019-05-07T16:04:19.083Z,13.85
2019-05-07T16:09:16.993Z,13.83
2019-05-07T16:14:26.710Z,13.98
2019-05-07T16:19:35.144Z,14.04
2019-05-07T16:24:41.997Z,14.02
2019-05-07T16:29:52.520Z,14.11
2019-05-07T16:35:05.651Z,13.87
2019-05-07T16:40:12.818Z,13.75
2019-05-07T16:45:19.064Z,13.49
2019-05-07T16:50:37.842Z,13.49
2019-05-07T16:55:43.754Z,13.18
2019-05-07T17:00:54.065Z,13.21
2019-05-07T17:06:05.199Z,12.83
2019-05-07T17:11:12.455Z,12.72
2019-05-07T17:16:26.970Z,12.95
2019-05-07T17:21:42.894Z,12.49
2019-05-07T17:26:51.280Z,12.70
2019-05-07T17:31:57.329Z,12.94
2019-05-07T17:37:05.571Z,12.55
2019-05-07T17:47:21.847Z,12.86
2019-05-07T17:52:34.433Z,12.66
2019-05-07T17:57:41.778Z,12.38
2019-05-07T18:03:08.101Z,12.47
2019-05-07T18:08:17.212Z,12.18
2019-05-07T18:13:32.388Z,12.01
2019-05-07T18:18:38.056Z,11.67
2019-05-07T18:23:43.830Z,11.58
2019-05-07T18:28:54.871Z,11.57
2019-05-07T18:34:05.998Z,11.46
2019-05-07T18:39:19.918Z,11.44
2019-05-07T18:44:28.747Z,11.58
2019-05-07T18:49:35.313Z,11.63
2019-05-07T18:54:47.936Z,11.36
2019-05-07T18:59:56.218Z,11.22
2019-05-07T19:05:07.867Z,11.48
2019-05-07T19:10:39.564Z,11.14
2019-05-07T19:15:47.841Z,10.89
2019-05-07T19:20:54.031Z,11.13
2019-05-07T19:26:04.296Z,10.76
2019-05-07T19:31:12.704Z,10.76
2019-05-07T19:36:19.175Z,11.09
2019-05-07T19:41:25.318Z,11.31
2019-05-07T19:46:32.281Z,10.98
2019-05-07T19:51:42.907Z,10.63
2019-05-07T19:56:57.088Z,10.69
2019-05-07T20:02:12.249Z,10.73
2019-05-07T20:07:22.270Z,10.68
2019-05-07T20:12:36.367Z,10.44
2019-05-07T20:17:47.636Z,10.40
2019-05-07T20:22:59.396Z,10.29
2019-05-07T20:28:07.578Z,10.37
2019-05-07T20:33:14.531Z,10.45
2019-05-07T20:38:22.270Z,10.45
2019-05-07T20:43:27.928Z,10.31
2019-05-07T20:48:35.096Z,10.03
2019-05-07T20:54:17.355Z,10.33
2019-05-07T20:59:25.811Z,10.06
2019-05-07T21:04:33.058Z,9.98
2019-05-07T21:09:42.120Z,10.01
2019-05-07T21:14:47.720Z,10.17
2019-05-07T21:19:54.940Z,10.12
2019-05-07T21:25:02.687Z,10.13
2019-05-07T21:30:08.284Z,10.16
2019-05-07T21:35:14.918Z,10.17
2019-05-07T21:40:22.426Z,10.35
2019-05-07T21:45:28.141Z,10.23
2019-05-07T21:50:33.697Z,10.07
2019-05-07T21:56:01.721Z,9.96
2019-05-07T22:01:09.462Z,9.92
2019-05-07T22:06:22.481Z,10.08
2019-05-07T22:11:32.389Z,9.86
2019-05-07T22:16:39.162Z,9.83
2019-05-07T22:21:44.666Z,9.77
2019-05-07T22:26:50.169Z,9.69
2019-05-07T22:32:32.759Z,9.82
2019-05-07T22:37:46.601Z,9.48
2019-05-07T22:43:06.486Z,9.23
2019-05-07T22:48:12.324Z,9.33
2019-05-07T22:53:18.122Z,9.48
2019-05-07T22:58:38.000Z,9.41
2019-05-07T23:03:43.539Z,9.55
2019-05-07T23:08:52.901Z,9.48
2019-05-07T23:13:58.799Z,9.26
2019-05-07T23:19:07.624Z,9.37
2019-05-07T23:24:13.143Z,9.38
2019-05-07T23:29:18.636Z,9.31
2019-05-07T23:34:26.497Z,9.29
2019-05-07T23:39:34.101Z,9.25
2019-05-07T23:44:42.023Z,9.33
2019-05-07T23:49:52.396Z,9.14
2019-05-07T23:55:02.853Z,8.99
